Time;durP1;ratioP1;P1;durP2;ratioP2;P2;SDS_P1;SDS_P2;PMS_P1;PMS_P2;Temp;Humidity;BMP_temperature;BMP_pressure;BME280_temperature;BME280_humidity;BME280_pressure;Samples;Min_cycle;Max_cycle;Signal;HPM_P1;HPM_P2
2022/06/11 00:00:39;;;;;;;5.13;3.97;;;17.30;99.90;;;;;;10478388;28;20217;-73
2022/06/11 00:05:40;;;;;;;5.87;3.70;;;17.20;99.90;;;;;;10489980;28;20246;-72
2022/06/11 00:10:40;;;;;;;6.70;3.63;;;17.20;99.90;;;;;;10474761;28;20233;-73
2022/06/11 00:15:42;;;;;;;6.20;4.50;;;17.20;99.90;;;;;;10484281;28;20623;-73
2022/06/11 00:20:43;;;;;;;7.53;4.17;;;17.10;99.90;;;;;;10477034;28;20263;-72
2022/06/11 00:25:44;;;;;;;5.77;4.27;;;17.10;99.90;;;;;;10474888;28;20221;-72
2022/06/11 00:30:45;;;;;;;4.90;4.17;;;17.10;99.90;;;;;;10474876;28;20261;-72
2022/06/11 00:35:45;;;;;;;8.63;4.60;;;17.00;99.90;;;;;;10474922;28;20234;-72
2022/06/11 00:40:49;;;;;;;7.07;4.60;;;16.90;99.90;;;;;;10482617;28;20227;-73
2022/06/11 00:45:50;;;;;;;6.90;4.83;;;16.80;99.90;;;;;;10475073;28;20235;-73
2022/06/11 00:51:00;;;;;;;8.60;4.53;;;16.80;99.90;;;;;;10472970;28;20225;-72
2022/06/11 00:56:04;;;;;;;7.37;4.57;;;16.70;99.90;;;;;;10477605;28;20230;-71
2022/06/11 01:01:06;;;;;;;7.53;4.50;;;16.60;99.90;;;;;;10475722;28;20523;-72
2022/06/11 01:06:24;;;;;;;9.53;4.53;;;16.50;99.90;;;;;;10487579;28;20223;-72
2022/06/11 01:11:47;;;;;;;5.67;4.20;;;16.40;99.90;;;;;;10474879;28;20224;-72
2022/06/11 01:16:50;;;;;;;7.03;4.33;;;16.40;99.90;;;;;;10481840;28;20233;-72
2022/06/11 01:22:07;;;;;;;5.83;4.80;;;16.40;99.90;;;;;;10476963;28;20223;-72
2022/06/11 01:27:26;;;;;;;6.93;4.90;;;16.40;99.90;;;;;;10480194;28;20233;-70
2022/06/11 01:32:34;;;;;;;6.50;4.90;;;16.30;99.90;;;;;;10469956;28;20293;-72
2022/06/11 01:37:55;;;;;;;7.23;4.67;;;16.30;99.90;;;;;;10488997;28;20216;-70
2022/06/11 01:43:10;;;;;;;7.07;4.50;;;16.20;99.90;;;;;;10473024;28;20812;-71
2022/06/11 01:48:15;;;;;;;7.63;4.60;;;16.20;99.90;;;;;;10483914;28;20227;-71
2022/06/11 01:53:19;;;;;;;5.93;4.20;;;16.10;99.90;;;;;;10471368;28;20780;-70
2022/06/11 01:58:31;;;;;;;8.63;4.30;;;16.10;99.90;;;;;;10482929;28;20220;-70
2022/06/11 02:04:04;;;;;;;8.30;4.10;;;15.90;99.90;;;;;;10475531;28;20896;-70
2022/06/11 02:09:16;;;;;;;8.20;3.90;;;15.90;99.90;;;;;;10480164;28;20230;-70
2022/06/11 02:14:20;;;;;;;6.00;4.00;;;15.90;99.90;;;;;;10495242;28;20231;-71
2022/06/11 02:19:31;;;;;;;5.67;3.67;;;15.90;99.90;;;;;;10477853;28;20228;-70
2022/06/11 02:24:43;;;;;;;5.10;4.03;;;15.80;99.90;;;;;;10492572;28;20234;-69
2022/06/11 02:29:45;;;;;;;5.20;3.40;;;15.80;99.90;;;;;;10487732;28;20230;-71
2022/06/11 02:34:50;;;;;;;5.20;3.67;;;15.80;99.90;;;;;;10486066;28;20227;-70
2022/06/11 02:39:54;;;;;;;5.03;3.77;;;15.70;99.90;;;;;;10482778;28;20250;-70
2022/06/11 02:44:55;;;;;;;4.37;3.97;;;15.60;99.90;;;;;;10475394;28;20588;-71
2022/06/11 02:49:56;;;;;;;6.47;4.43;;;15.50;99.90;;;;;;10491708;28;20218;-70
2022/06/11 02:54:56;;;;;;;5.60;3.80;;;15.40;99.90;;;;;;10493626;28;20222;-71
2022/06/11 02:59:57;;;;;;;4.53;3.80;;;15.40;99.90;;;;;;10483699;28;20436;-70
2022/06/11 03:04:58;;;;;;;6.83;3.50;;;15.50;99.90;;;;;;10490928;28;20226;-70
2022/06/11 03:09:59;;;;;;;8.97;3.70;;;15.50;99.90;;;;;;10483854;28;20218;-71
2022/06/11 03:15:00;;;;;;;5.93;3.37;;;15.50;99.90;;;;;;10476384;28;20231;-70
2022/06/11 03:20:00;;;;;;;3.10;2.80;;;15.60;99.90;;;;;;10476085;28;20218;-70
2022/06/11 03:25:01;;;;;;;7.73;3.57;;;15.80;99.90;;;;;;10476369;28;20211;-70
2022/06/11 03:30:04;;;;;;;6.57;3.20;;;16.00;99.90;;;;;;10483925;28;20276;-70
2022/06/11 03:35:05;;;;;;;3.27;2.77;;;16.30;99.90;;;;;;10485493;28;20220;-71
2022/06/11 03:40:07;;;;;;;6.30;3.03;;;16.30;99.90;;;;;;10494350;28;20191;-70
2022/06/11 03:45:09;;;;;;;5.60;2.60;;;16.40;99.90;;;;;;10478369;28;20195;-71
2022/06/11 03:50:32;;;;;;;4.37;2.60;;;16.50;99.90;;;;;;10479646;28;20266;-71
2022/06/11 03:55:34;;;;;;;4.90;3.03;;;16.60;99.90;;;;;;10479022;28;20825;-70
2022/06/11 04:05:54;;;;;;;4.83;3.03;;;16.70;99.90;;;;;;10483278;28;20310;-70
2022/06/11 04:10:57;;;;;;;4.97;3.00;;;16.80;99.90;;;;;;10489163;28;20298;-70
2022/06/11 04:15:59;;;;;;;5.97;3.00;;;16.90;99.90;;;;;;10484447;28;20223;-71
2022/06/11 04:21:04;;;;;;;5.27;2.90;;;17.00;99.90;;;;;;10474957;28;20219;-70
2022/06/11 04:26:08;;;;;;;7.10;3.13;;;17.20;99.90;;;;;;10473487;28;20219;-70
2022/06/11 04:31:09;;;;;;;7.13;3.27;;;17.30;99.90;;;;;;10488036;28;20232;-71
2022/06/11 04:36:11;;;;;;;3.50;2.87;;;17.50;99.90;;;;;;10480559;28;20235;-70
2022/06/11 04:41:12;;;;;;;5.63;3.20;;;17.60;99.90;;;;;;10478010;28;20662;-71
2022/06/11 04:46:14;;;;;;;5.97;3.43;;;17.80;99.90;;;;;;10473659;28;20244;-70
2022/06/11 04:51:15;;;;;;;6.03;3.20;;;18.00;99.90;;;;;;10482710;28;20227;-70
2022/06/11 04:56:20;;;;;;;7.53;3.77;;;18.30;99.90;;;;;;10476923;28;20240;-69
2022/06/11 05:01:21;;;;;;;6.40;3.43;;;18.60;99.90;;;;;;10477098;28;20273;-71
2022/06/11 05:06:28;;;;;;;10.33;3.47;;;19.00;99.90;;;;;;10473420;28;20285;-70
2022/06/11 05:11:28;;;;;;;7.53;3.17;;;19.60;99.90;;;;;;10486125;28;20909;-71
2022/06/11 05:16:29;;;;;;;6.60;3.17;;;20.40;99.90;;;;;;10473300;28;20237;-69
2022/06/11 05:21:30;;;;;;;12.23;3.60;;;20.30;99.90;;;;;;10473274;28;20250;-70
2022/06/11 05:26:35;;;;;;;5.63;2.60;;;19.90;99.90;;;;;;10465696;28;20226;-71
2022/06/11 05:31:37;;;;;;;6.50;3.20;;;19.70;99.90;;;;;;10485085;28;20706;-70
2022/06/11 05:36:37;;;;;;;6.63;3.33;;;19.80;99.90;;;;;;10482374;28;20730;-71
2022/06/11 05:41:38;;;;;;;6.17;3.33;;;19.90;99.90;;;;;;10489449;28;20230;-71
2022/06/11 05:46:39;;;;;;;7.57;3.70;;;19.90;99.90;;;;;;10488539;28;20227;-68
2022/06/11 05:51:45;;;;;;;6.53;3.77;;;19.90;99.90;;;;;;10489951;28;20307;-69
2022/06/11 05:56:47;;;;;;;8.03;3.23;;;19.90;99.90;;;;;;10486628;28;20231;-70
2022/06/11 06:01:48;;;;;;;4.63;2.83;;;23.00;99.90;;;;;;10496727;28;20303;-70
2022/06/11 06:06:49;;;;;;;5.60;2.50;;;26.50;99.90;;;;;;10485837;28;20278;-70
2022/06/11 06:11:49;;;;;;;5.53;2.93;;;29.40;93.50;;;;;;10494432;28;20642;-69
2022/06/11 06:16:50;;;;;;;6.23;3.10;;;31.90;74.40;;;;;;10483445;28;20241;-71
2022/06/11 06:21:51;;;;;;;4.70;2.63;;;33.60;59.00;;;;;;10485730;28;20301;-70
2022/06/11 06:26:52;;;;;;;6.37;2.47;;;34.70;53.00;;;;;;10484335;28;20211;-70
2022/06/11 06:31:52;;;;;;;5.07;2.20;;;35.50;49.70;;;;;;10477962;28;20226;-70
2022/06/11 06:36:53;;;;;;;8.10;2.93;;;36.60;47.80;;;;;;10488946;28;20326;-70
2022/06/11 06:41:54;;;;;;;6.33;2.60;;;37.10;44.00;;;;;;10493072;28;20242;-71
2022/06/11 06:46:54;;;;;;;7.63;2.63;;;37.00;42.80;;;;;;10484711;28;20215;-71
2022/06/11 06:51:55;;;;;;;9.73;3.30;;;37.10;42.30;;;;;;10485254;28;20302;-70
2022/06/11 06:56:55;;;;;;;7.87;2.90;;;37.60;41.20;;;;;;10477212;28;20245;-70
2022/06/11 07:01:56;;;;;;;10.50;3.63;;;38.10;40.00;;;;;;10477907;28;20226;-70
2022/06/11 07:06:57;;;;;;;12.33;3.20;;;38.50;39.20;;;;;;10491649;28;20219;-71
2022/06/11 07:11:57;;;;;;;6.10;2.60;;;38.20;37.50;;;;;;10484775;28;20218;-70
2022/06/11 07:17:02;;;;;;;5.73;2.50;;;38.10;38.20;;;;;;10482694;28;20232;-69
2022/06/11 07:22:14;;;;;;;6.47;2.73;;;38.60;37.70;;;;;;10488486;28;20254;-70
2022/06/11 07:27:22;;;;;;;5.23;2.83;;;39.60;36.50;;;;;;10476877;28;20697;-70
2022/06/11 07:32:28;;;;;;;4.73;2.53;;;40.30;35.30;;;;;;10479654;28;20300;-69
2022/06/11 07:37:28;;;;;;;5.30;2.77;;;40.10;34.40;;;;;;10477886;28;20610;-69
2022/06/11 07:42:29;;;;;;;6.63;2.70;;;40.30;33.70;;;;;;10484324;28;20227;-70
2022/06/11 07:52:50;;;;;;;4.93;2.23;;;41.20;32.10;;;;;;10479609;28;20227;-70
2022/06/11 07:57:52;;;;;;;4.23;2.30;;;41.20;31.70;;;;;;10490660;28;20223;-70
2022/06/11 08:02:52;;;;;;;4.80;2.30;;;41.30;31.40;;;;;;10481872;28;20226;-70
2022/06/11 08:07:56;;;;;;;4.70;2.27;;;40.50;31.10;;;;;;10483119;28;20681;-71
2022/06/11 08:12:57;;;;;;;3.90;2.10;;;41.00;31.50;;;;;;10481399;28;20597;-70
2022/06/11 08:17:57;;;;;;;4.23;2.33;;;41.60;30.70;;;;;;10490687;28;20215;-69
2022/06/11 08:22:59;;;;;;;17.02;6.38;;;42.20;30.40;;;;;;10478798;28;20220;-70
2022/06/11 08:28:00;;;;;;;4.83;2.40;;;42.40;29.20;;;;;;10482279;28;20225;-71
2022/06/11 08:33:01;;;;;;;4.53;1.83;;;41.40;29.90;;;;;;10486814;28;20261;-69
2022/06/11 08:38:03;;;;;;;4.50;1.90;;;41.80;30.00;;;;;;10474353;28;20294;-70
2022/06/11 08:43:25;;;;;;;5.88;2.10;;;43.00;28.70;;;;;;10473722;28;20812;-70
2022/06/11 08:48:44;;;;;;;3.75;1.80;;;44.20;28.20;;;;;;10486125;28;20223;-71
2022/06/11 08:53:47;;;;;;;3.53;1.92;;;45.10;27.60;;;;;;10482176;28;20230;-70
2022/06/11 08:58:51;;;;;;;10.98;1.88;;;45.20;26.60;;;;;;10474548;28;20204;-71
2022/06/11 09:04:16;;;;;;;2.35;1.60;;;45.80;25.90;;;;;;10471892;28;20316;-69
2022/06/11 09:09:26;;;;;;;3.47;1.88;;;46.40;25.10;;;;;;10477395;28;20219;-70
2022/06/11 09:14:33;;;;;;;3.33;1.67;;;46.60;25.10;;;;;;10498301;28;20215;-70
2022/06/11 09:20:17;;;;;;;2.80;1.70;;;46.60;25.00;;;;;;10487582;28;20219;-71
2022/06/11 09:26:19;;;;;;;2.95;1.75;;;45.90;24.60;;;;;;10487688;28;20215;-70
2022/06/11 09:31:27;;;;;;;2.85;1.60;;;45.80;24.40;;;;;;10384370;28;20252;-70
2022/06/11 09:36:55;;;;;;;1.75;1.23;;;45.00;24.80;;;;;;10486019;28;20777;-70
2022/06/11 09:42:11;;;;;;;1.95;1.50;;;45.80;24.60;;;;;;10486250;28;20297;-69
2022/06/11 09:47:23;;;;;;;4.90;1.90;;;46.80;24.20;;;;;;10484450;28;20214;-69
2022/06/11 09:52:31;;;;;;;2.75;1.80;;;47.10;24.00;;;;;;10494555;28;20215;-70
2022/06/11 09:57:48;;;;;;;1.98;1.33;;;45.60;24.00;;;;;;10489260;28;20738;-70
2022/06/11 10:08:57;;;;;;;4.00;1.92;;;45.40;25.00;;;;;;10477012;28;20207;-70
2022/06/11 10:19:47;;;;;;;3.38;1.67;;;47.10;24.10;;;;;;10482902;28;20213;-70
2022/06/11 10:25:13;;;;;;;2.72;1.65;;;47.50;23.60;;;;;;10480547;28;20337;-70
2022/06/11 10:30:33;;;;;;;3.13;1.73;;;47.40;23.40;;;;;;10481253;28;20310;-70
2022/06/11 10:35:47;;;;;;;3.05;1.50;;;47.60;23.30;;;;;;10483321;28;20277;-69
2022/06/11 10:40:51;;;;;;;3.28;1.20;;;47.60;23.10;;;;;;10485698;28;20895;-70
2022/06/11 10:45:52;;;;;;;2.28;1.42;;;45.90;23.90;;;;;;10478495;28;20333;-69
2022/06/11 10:50:53;;;;;;;3.20;1.50;;;46.20;23.90;;;;;;10477739;28;20366;-70
2022/06/11 10:56:00;;;;;;;3.70;1.20;;;46.60;23.90;;;;;;10488417;28;20369;-68
2022/06/11 11:01:07;;;;;;;3.50;1.63;;;46.30;23.90;;;;;;10483689;28;21022;-70
2022/06/11 11:06:16;;;;;;;1.77;1.20;;;46.30;23.70;;;;;;10477455;28;20222;-71
2022/06/11 11:11:16;;;;;;;1.92;1.20;;;46.40;23.60;;;;;;10477789;28;20227;-69
2022/06/11 11:16:23;;;;;;;3.97;1.30;;;46.00;23.70;;;;;;10484371;28;20223;-70
2022/06/11 11:21:33;;;;;;;1.42;0.90;;;44.70;24.10;;;;;;10491299;28;20219;-71
2022/06/11 11:26:40;;;;;;;0.80;0.80;;;43.30;25.50;;;;;;10485729;28;20269;-71
2022/06/11 11:31:49;;;;;;;1.97;1.10;;;44.10;25.00;;;;;;10483910;28;20254;-69
2022/06/11 11:36:57;;;;;;;1.90;1.00;;;41.80;26.80;;;;;;10482467;28;20656;-69
2022/06/11 11:42:07;;;;;;;3.30;1.07;;;39.40;28.90;;;;;;10491471;28;20234;-69
2022/06/11 11:47:16;;;;;;;2.53;1.30;;;37.20;30.50;;;;;;10476317;28;20293;-68
2022/06/11 11:52:20;;;;;;;3.57;1.23;;;35.10;33.60;;;;;;10478340;28;20302;-69
2022/06/11 11:57:23;;;;;;;4.80;1.30;;;34.30;35.50;;;;;;10477319;28;20268;-68
2022/06/11 12:02:30;;;;;;;2.57;1.07;;;33.60;35.60;;;;;;10484416;28;20314;-69
2022/06/11 12:07:41;;;;;;;2.57;1.20;;;33.60;36.30;;;;;;10474567;28;20708;-69
2022/06/11 12:12:44;;;;;;;4.03;1.20;;;33.70;36.40;;;;;;10487224;28;20211;-70
2022/06/11 12:17:50;;;;;;;6.90;1.33;;;33.80;36.10;;;;;;10480063;28;20636;-69
2022/06/11 12:23:18;;;;;;;1.43;0.90;;;33.70;36.80;;;;;;10478555;28;20253;-69
2022/06/11 12:28:24;;;;;;;1.93;1.00;;;33.50;37.40;;;;;;10472075;28;20215;-69
2022/06/11 12:33:27;;;;;;;3.93;1.27;;;34.10;36.60;;;;;;10478756;28;20703;-69
2022/06/11 12:38:43;;;;;;;1.43;1.20;;;34.10;36.40;;;;;;10481062;28;20683;-70
2022/06/11 12:43:59;;;;;;;3.63;1.30;;;33.80;36.50;;;;;;10479936;28;20241;-68
2022/06/11 12:49:10;;;;;;;1.67;1.00;;;33.50;37.40;;;;;;10482839;28;20690;-69
2022/06/11 12:54:51;;;;;;;2.63;1.20;;;33.20;37.90;;;;;;10480951;28;20232;-69
2022/06/11 13:00:11;;;;;;;2.87;1.20;;;33.10;38.60;;;;;;10473291;28;20636;-69
2022/06/11 13:05:35;;;;;;;2.97;1.70;;;32.80;39.50;;;;;;10484464;28;20219;-68
2022/06/11 13:10:51;;;;;;;3.07;1.40;;;32.40;39.20;;;;;;10479828;28;20215;-69
2022/06/11 13:15:56;;;;;;;5.13;1.43;;;32.10;40.30;;;;;;10472753;28;20227;-68
2022/06/11 13:21:23;;;;;;;3.17;1.20;;;31.70;40.40;;;;;;10480153;28;20792;-69
2022/06/11 13:26:40;;;;;;;6.77;1.40;;;31.60;40.30;;;;;;10480098;28;20219;-68
2022/06/11 13:32:02;;;;;;;1.93;1.03;;;31.50;40.10;;;;;;10484458;28;20306;-68
2022/06/11 13:37:24;;;;;;;4.57;1.50;;;31.20;40.80;;;;;;10465634;28;20745;-68
2022/06/11 13:42:37;;;;;;;3.77;1.50;;;31.20;41.20;;;;;;10478688;28;20211;-68
2022/06/11 13:47:43;;;;;;;2.93;1.20;;;31.20;42.30;;;;;;10473218;28;20368;-69
2022/06/11 13:58:37;;;;;;;2.67;1.23;;;31.10;40.70;;;;;;10486482;28;20231;-68
2022/06/11 14:03:49;;;;;;;2.90;1.60;;;30.80;41.70;;;;;;10480933;28;20218;-68
2022/06/11 14:14:41;;;;;;;4.50;1.30;;;30.60;42.40;;;;;;10483628;28;20219;-68
2022/06/11 14:19:41;;;;;;;2.70;1.17;;;30.50;42.50;;;;;;10481089;28;20737;-68
2022/06/11 14:24:42;;;;;;;2.93;1.10;;;30.40;43.00;;;;;;10487362;28;20215;-68
2022/06/11 14:30:04;;;;;;;1.80;1.47;;;30.40;42.70;;;;;;10493642;28;20223;-68
2022/06/11 14:35:21;;;;;;;3.60;1.60;;;30.20;43.80;;;;;;10485259;28;20314;-68
2022/06/11 14:40:29;;;;;;;3.50;1.70;;;30.10;44.00;;;;;;10486443;28;20529;-68
2022/06/11 14:45:36;;;;;;;3.40;1.63;;;30.40;44.00;;;;;;10486775;28;20908;-69
2022/06/11 14:51:04;;;;;;;3.90;1.30;;;30.60;43.50;;;;;;10482396;28;20221;-68
2022/06/11 14:56:17;;;;;;;2.33;1.60;;;30.60;42.50;;;;;;10483856;28;20226;-67
2022/06/11 15:01:30;;;;;;;4.53;1.40;;;30.50;43.40;;;;;;10483493;28;20228;-68
2022/06/11 15:06:48;;;;;;;4.77;1.40;;;30.30;43.30;;;;;;10487637;28;20448;-68
2022/06/11 15:11:59;;;;;;;1.90;1.33;;;30.10;43.90;;;;;;10476997;28;20230;-68
2022/06/11 15:17:11;;;;;;;4.00;1.63;;;30.00;43.70;;;;;;10495166;28;20281;-68
2022/06/11 15:22:33;;;;;;;5.63;1.70;;;29.70;44.80;;;;;;10489867;28;20223;-68
2022/06/11 15:27:38;;;;;;;3.20;1.73;;;29.70;45.10;;;;;;10478249;28;20215;-69
2022/06/11 15:32:39;;;;;;;3.93;1.47;;;29.70;44.80;;;;;;10486980;28;20569;-68
2022/06/11 15:37:46;;;;;;;3.23;1.30;;;29.70;45.20;;;;;;10485414;28;20233;-68
2022/06/11 15:42:47;;;;;;;3.43;1.40;;;29.60;44.00;;;;;;10475691;28;20890;-68
2022/06/11 15:48:04;;;;;;;4.00;1.57;;;29.60;44.60;;;;;;10483197;28;20223;-68
2022/06/11 15:53:23;;;;;;;5.20;1.60;;;29.50;45.20;;;;;;10482528;28;20230;-68
2022/06/11 15:58:30;;;;;;;3.00;1.33;;;29.40;45.30;;;;;;10483459;28;20215;-69
2022/06/11 16:03:40;;;;;;;4.43;1.70;;;29.30;46.00;;;;;;10480824;28;20948;-69
2022/06/11 16:08:44;;;;;;;5.30;1.80;;;29.30;45.90;;;;;;10490516;28;20858;-69
2022/06/11 16:13:53;;;;;;;2.97;1.63;;;29.30;46.30;;;;;;10479357;28;20277;-69
2022/06/11 16:19:10;;;;;;;2.90;1.50;;;29.20;45.80;;;;;;10480239;28;20236;-69
2022/06/11 16:24:16;;;;;;;3.43;1.40;;;29.00;46.00;;;;;;10475160;28;20230;-68
2022/06/11 16:29:21;;;;;;;3.00;1.40;;;29.00;45.40;;;;;;10480108;28;20224;-69
2022/06/11 16:34:23;;;;;;;2.57;1.57;;;28.90;46.80;;;;;;10479998;28;20277;-68
2022/06/11 16:39:36;;;;;;;3.43;1.70;;;28.80;46.60;;;;;;10481824;28;20218;-69
2022/06/11 16:44:42;;;;;;;4.47;1.63;;;28.70;46.60;;;;;;10474405;28;20223;-68
2022/06/11 17:00:42;;;;;;;5.40;1.90;;;28.30;47.60;;;;;;10481972;28;20227;-68
2022/06/11 17:05:52;;;;;;;3.97;1.73;;;28.10;47.40;;;;;;10481639;28;20224;-68
2022/06/11 17:10:53;;;;;;;3.10;1.53;;;28.10;48.00;;;;;;10473295;28;20293;-69
2022/06/11 17:16:00;;;;;;;3.57;1.70;;;28.00;47.90;;;;;;10473088;28;20272;-69
2022/06/11 17:21:04;;;;;;;4.67;2.00;;;27.90;48.30;;;;;;10474676;28;20230;-69
2022/06/11 17:26:08;;;;;;;3.47;1.63;;;27.80;48.50;;;;;;10480025;28;20220;-69
2022/06/11 17:31:21;;;;;;;5.10;1.90;;;27.60;48.80;;;;;;10498376;28;20709;-68
2022/06/11 17:36:23;;;;;;;4.13;2.03;;;27.40;49.60;;;;;;10490366;28;20302;-69
2022/06/11 17:41:25;;;;;;;4.73;1.50;;;27.30;50.00;;;;;;10496117;28;20242;-69
2022/06/11 17:46:29;;;;;;;5.03;2.23;;;27.20;50.30;;;;;;10479837;28;20227;-69
2022/06/11 17:51:33;;;;;;;6.70;1.77;;;27.10;50.70;;;;;;10477197;28;20603;-68
2022/06/11 17:56:34;;;;;;;3.17;1.83;;;27.10;50.60;;;;;;10490500;28;20236;-68
2022/06/11 18:01:35;;;;;;;1.97;1.27;;;27.00;50.90;;;;;;10493334;28;20226;-69
2022/06/11 18:06:36;;;;;;;5.87;1.67;;;27.00;51.10;;;;;;10479422;28;20246;-68
2022/06/11 18:11:36;;;;;;;4.30;2.13;;;26.90;51.10;;;;;;10495543;28;20309;-69
2022/06/11 18:16:37;;;;;;;3.17;1.93;;;26.80;51.30;;;;;;10487607;28;20226;-68
2022/06/11 18:26:58;;;;;;;5.07;2.43;;;26.60;51.60;;;;;;10487517;28;20230;-69
2022/06/11 18:31:58;;;;;;;3.97;2.03;;;26.50;51.90;;;;;;10493492;28;20234;-68
2022/06/11 18:36:59;;;;;;;4.77;2.03;;;26.40;52.20;;;;;;10487239;28;20299;-68
2022/06/11 18:42:00;;;;;;;3.23;1.57;;;26.30;52.70;;;;;;10488330;28;20218;-68
2022/06/11 18:47:01;;;;;;;4.83;1.80;;;26.10;53.10;;;;;;10484972;28;20291;-68
2022/06/11 18:52:01;;;;;;;3.43;1.87;;;25.90;53.80;;;;;;10492000;28;20222;-68
2022/06/11 18:57:03;;;;;;;5.10;1.90;;;25.80;54.50;;;;;;10491348;28;20227;-68
2022/06/11 19:02:05;;;;;;;5.83;2.10;;;25.60;54.80;;;;;;10486438;28;20215;-69
2022/06/11 19:07:06;;;;;;;5.33;2.60;;;25.50;55.50;;;;;;10484823;28;20589;-68
2022/06/11 19:12:07;;;;;;;2.93;2.00;;;25.40;56.30;;;;;;10479769;28;20224;-68
2022/06/11 19:17:08;;;;;;;5.37;1.90;;;25.20;56.90;;;;;;10484756;28;20342;-68
2022/06/11 19:22:08;;;;;;;5.23;2.10;;;25.00;57.40;;;;;;10489975;28;20256;-69
2022/06/11 19:27:09;;;;;;;5.03;1.93;;;24.80;58.10;;;;;;10484211;28;20302;-69
2022/06/11 19:32:10;;;;;;;3.37;2.03;;;24.60;59.00;;;;;;10478091;28;20230;-69
2022/06/11 19:37:14;;;;;;;4.17;2.40;;;24.30;59.80;;;;;;10485377;28;20309;-68
2022/06/11 19:42:17;;;;;;;5.13;2.67;;;24.10;61.10;;;;;;10475026;28;20922;-69
2022/06/11 19:47:18;;;;;;;8.40;2.40;;;23.90;62.70;;;;;;10489086;28;20219;-69
2022/06/11 19:52:24;;;;;;;2.97;2.00;;;23.70;65.60;;;;;;10479949;28;20219;-67
2022/06/11 19:57:24;;;;;;;4.07;2.20;;;23.50;65.70;;;;;;10492206;28;20615;-68
2022/06/11 20:02:25;;;;;;;3.83;2.70;;;23.30;66.60;;;;;;10491973;28;20230;-69
2022/06/11 20:07:26;;;;;;;4.07;2.30;;;23.10;67.90;;;;;;10479292;28;20222;-69
2022/06/11 20:12:26;;;;;;;6.57;2.47;;;23.00;69.00;;;;;;10488444;28;20216;-69
2022/06/11 20:17:27;;;;;;;3.13;2.13;;;22.90;69.40;;;;;;10483697;28;20250;-68
2022/06/11 20:22:34;;;;;;;3.27;2.07;;;22.80;69.30;;;;;;10489877;28;20978;-69
2022/06/11 20:27:34;;;;;;;2.97;2.13;;;22.70;69.40;;;;;;10476210;28;20223;-69
2022/06/11 20:32:35;;;;;;;4.03;2.80;;;22.60;69.50;;;;;;10490721;28;20295;-69
2022/06/11 20:37:36;;;;;;;3.47;2.20;;;22.50;70.60;;;;;;10477112;28;20757;-69
2022/06/11 20:42:39;;;;;;;3.63;2.53;;;22.40;71.60;;;;;;10489372;28;20600;-69
2022/06/11 20:47:40;;;;;;;5.20;2.60;;;22.30;72.00;;;;;;10483333;28;20764;-68
2022/06/11 20:52:47;;;;;;;3.93;2.10;;;22.30;72.30;;;;;;10489945;28;20307;-69
2022/06/11 20:57:49;;;;;;;4.53;2.57;;;22.20;72.90;;;;;;10483076;28;20234;-70
2022/06/11 21:02:51;;;;;;;4.33;2.43;;;22.10;72.90;;;;;;10494840;28;20251;-69
2022/06/11 21:13:14;;;;;;;5.20;2.37;;;22.00;73.70;;;;;;10485413;28;20213;-69
2022/06/11 21:18:15;;;;;;;7.27;2.97;;;21.90;73.10;;;;;;10491667;28;20265;-71
2022/06/11 21:23:15;;;;;;;3.53;2.70;;;21.90;73.40;;;;;;10490607;28;20224;-69
2022/06/11 21:28:17;;;;;;;3.87;2.50;;;21.80;73.70;;;;;;10487812;28;20315;-69
2022/06/11 21:33:18;;;;;;;4.43;2.60;;;21.80;73.70;;;;;;10485156;28;20759;-69
2022/06/11 21:38:18;;;;;;;2.87;2.60;;;21.80;74.00;;;;;;10478655;28;20221;-69
2022/06/11 21:43:19;;;;;;;4.87;2.77;;;21.70;74.40;;;;;;10489530;28;20302;-68
2022/06/11 21:48:20;;;;;;;5.20;2.40;;;21.70;75.00;;;;;;10489035;28;20224;-68
2022/06/11 21:53:20;;;;;;;6.57;2.73;;;21.60;75.20;;;;;;10490443;28;20232;-69
2022/06/11 21:58:25;;;;;;;3.37;2.53;;;21.50;75.70;;;;;;10483034;28;20207;-70
2022/06/11 22:03:26;;;;;;;4.53;2.70;;;21.30;76.40;;;;;;10491232;28;20234;-69
2022/06/11 22:08:30;;;;;;;5.80;2.43;;;21.20;77.80;;;;;;10484294;28;20225;-69
2022/06/11 22:13:31;;;;;;;4.37;2.30;;;21.20;78.80;;;;;;10493393;28;20247;-69
2022/06/11 22:18:32;;;;;;;3.43;2.07;;;21.10;78.40;;;;;;10490665;28;20215;-69
2022/06/11 22:23:33;;;;;;;3.23;2.37;;;21.00;79.30;;;;;;10496535;28;20227;-70
2022/06/11 22:28:33;;;;;;;5.47;2.60;;;20.90;80.40;;;;;;10490870;28;20223;-68
2022/06/11 22:33:35;;;;;;;3.60;1.93;;;20.90;80.50;;;;;;10480848;28;20281;-71
2022/06/11 22:38:36;;;;;;;2.90;2.07;;;20.70;82.40;;;;;;10483364;28;20223;-69
2022/06/11 22:43:36;;;;;;;5.00;2.37;;;20.60;83.20;;;;;;10488544;28;20635;-70
2022/06/11 22:48:38;;;;;;;4.80;2.10;;;20.50;84.60;;;;;;10485307;28;20226;-69
2022/06/11 22:53:41;;;;;;;4.57;2.50;;;20.40;86.00;;;;;;10483647;28;20312;-69
2022/06/11 22:58:43;;;;;;;3.77;2.63;;;20.30;87.20;;;;;;10479999;28;20754;-68
2022/06/11 23:03:46;;;;;;;3.50;2.57;;;20.30;88.80;;;;;;10485135;28;20215;-68
2022/06/11 23:08:46;;;;;;;4.03;2.67;;;20.20;90.10;;;;;;10494833;28;20211;-69
2022/06/11 23:13:52;;;;;;;4.93;2.43;;;20.10;90.90;;;;;;10479704;28;20231;-69
2022/06/11 23:18:53;;;;;;;3.17;2.33;;;20.10;91.70;;;;;;10491097;28;20211;-70
2022/06/11 23:23:56;;;;;;;4.80;2.40;;;20.00;92.60;;;;;;10475704;28;20216;-70
2022/06/11 23:28:57;;;;;;;3.30;2.93;;;20.00;93.90;;;;;;10478314;28;20227;-69
2022/06/11 23:33:58;;;;;;;5.23;2.33;;;20.00;95.00;;;;;;10492025;28;20211;-68
2022/06/11 23:38:59;;;;;;;9.20;2.50;;;19.90;96.20;;;;;;10477747;28;20215;-68
2022/06/11 23:43:59;;;;;;;6.20;2.23;;;19.80;97.70;;;;;;10483880;28;20224;-69
2022/06/11 23:49:00;;;;;;;3.07;1.83;;;19.80;99.10;;;;;;10489153;28;20219;-68
2022/06/11 23:54:02;;;;;;;5.00;2.27;;;19.70;99.90;;;;;;10491530;28;20337;-70
2022/06/11 23:59:04;;;;;;;6.07;2.60;;;19.70;99.90;;;;;;10491024;28;20215;-69
